createdAt,value
2018-05-16T00:01:39.469Z,11.00
2018-05-16T00:04:28.315Z,11.00
2018-05-16T00:07:07.825Z,10.90
2018-05-16T00:09:57.688Z,10.90
2018-05-16T00:12:39.680Z,10.90
2018-05-16T00:15:19.670Z,11.00
2018-05-16T00:18:01.502Z,11.00
2018-05-16T00:20:40.596Z,11.00
2018-05-16T00:23:15.007Z,11.00
2018-05-16T00:25:54.348Z,11.00
2018-05-16T00:31:15.697Z,11.00
2018-05-16T00:33:55.448Z,11.00
2018-05-16T00:36:35.465Z,11.00
2018-05-16T00:39:16.717Z,11.00
2018-05-16T00:41:58.618Z,11.00
2018-05-16T00:44:39.724Z,11.00
2018-05-16T00:47:20.967Z,11.00
2018-05-16T00:50:02.962Z,11.00
2018-05-16T00:52:44.415Z,11.00
2018-05-16T00:55:26.403Z,10.90
2018-05-16T00:58:08.512Z,10.90
2018-05-16T01:00:51.184Z,10.90
2018-05-16T01:03:30.979Z,10.90
2018-05-16T01:06:13.480Z,10.90
2018-05-16T01:11:43.389Z,10.80
2018-05-16T01:14:23.388Z,10.80
2018-05-16T01:17:02.283Z,10.80
2018-05-16T01:22:15.302Z,10.80
2018-05-16T01:24:58.078Z,10.80
2018-05-16T01:30:16.836Z,10.80
2018-05-16T01:32:57.405Z,10.80
2018-05-16T01:35:37.493Z,10.70
2018-05-16T01:38:17.505Z,10.70
2018-05-16T01:40:57.641Z,10.60
2018-05-16T01:46:16.992Z,10.70
2018-05-16T01:49:03.113Z,10.60
2018-05-16T01:51:53.284Z,10.70
2018-05-16T01:57:15.482Z,10.70
2018-05-16T01:59:47.975Z,10.70
2018-05-16T02:05:10.793Z,10.70
2018-05-16T02:08:01.715Z,10.70
2018-05-16T02:10:41.823Z,10.60
2018-05-16T02:13:23.370Z,10.70
2018-05-16T02:16:13.746Z,10.70
2018-05-16T02:18:52.836Z,10.60
2018-05-16T02:21:34.640Z,10.60
2018-05-16T02:24:14.408Z,10.70
2018-05-16T02:27:05.820Z,10.70
2018-05-16T02:29:48.885Z,10.70
2018-05-16T02:32:29.950Z,10.60
2018-05-16T02:35:11.596Z,10.60
2018-05-16T02:37:50.871Z,10.60
2018-05-16T02:40:32.866Z,10.70
2018-05-16T02:43:17.259Z,10.70
2018-05-16T02:45:58.289Z,10.60
2018-05-16T02:48:40.081Z,10.60
2018-05-16T02:51:21.947Z,10.60
2018-05-16T02:54:03.098Z,10.50
2018-05-16T02:56:42.681Z,10.50
2018-05-16T03:02:04.469Z,10.50
2018-05-16T03:04:46.412Z,10.50
2018-05-16T03:07:28.424Z,10.60
2018-05-16T03:10:10.607Z,10.60
2018-05-16T03:12:54.693Z,10.50
2018-05-16T03:15:37.803Z,10.50
2018-05-16T03:18:17.719Z,10.50
2018-05-16T03:20:59.676Z,10.40
2018-05-16T03:23:41.594Z,10.40
2018-05-16T03:26:23.860Z,10.40
2018-05-16T03:29:05.488Z,10.40
2018-05-16T03:31:49.421Z,10.40
2018-05-16T03:37:11.140Z,10.40
2018-05-16T03:39:54.586Z,10.40
2018-05-16T03:42:42.391Z,10.40
2018-05-16T03:45:25.984Z,10.40
2018-05-16T03:48:08.060Z,10.40
2018-05-16T03:50:50.720Z,10.50
2018-05-16T03:56:11.609Z,10.50
2018-05-16T03:58:57.703Z,10.50
2018-05-16T04:01:40.076Z,10.40
2018-05-16T04:04:21.912Z,10.40
2018-05-16T04:09:43.822Z,10.40
2018-05-16T04:12:24.612Z,10.40
2018-05-16T04:15:07.065Z,10.40
2018-05-16T04:17:49.961Z,10.40
2018-05-16T04:20:29.237Z,10.40
2018-05-16T04:23:11.140Z,10.40
2018-05-16T04:28:38.296Z,10.40
2018-05-16T04:31:19.258Z,10.40
2018-05-16T04:33:59.401Z,10.40
2018-05-16T04:36:40.515Z,10.40
2018-05-16T04:39:22.157Z,10.50
2018-05-16T04:44:41.575Z,10.50
2018-05-16T04:47:23.617Z,10.50
2018-05-16T04:50:05.923Z,10.50
2018-05-16T04:52:46.612Z,10.50
2018-05-16T04:58:08.084Z,10.50
2018-05-16T05:00:49.782Z,10.50
2018-05-16T05:03:32.308Z,10.40
2018-05-16T05:08:56.794Z,10.40
2018-05-16T05:11:37.595Z,10.30
2018-05-16T05:14:18.586Z,10.30
2018-05-16T05:17:05.093Z,10.20
2018-05-16T05:22:24.258Z,10.30
2018-05-16T05:25:06.122Z,10.30
2018-05-16T05:30:26.034Z,10.20
2018-05-16T05:33:28.232Z,10.10
2018-05-16T05:39:13.586Z,10.20
2018-05-16T05:47:36.078Z,10.20
2018-05-16T05:50:18.070Z,10.30
2018-05-16T05:53:25.133Z,10.30
2018-05-16T05:56:06.236Z,10.20
2018-05-16T05:59:06.875Z,10.20
2018-05-16T06:21:33.074Z,10.30
2018-05-16T06:27:23.543Z,10.20
2018-05-16T06:30:04.984Z,10.20
2018-05-16T06:38:30.366Z,10.10
2018-05-16T06:50:18.598Z,10.30
2018-05-16T06:56:06.066Z,10.40
2018-05-16T07:04:55.118Z,10.50
2018-05-16T07:10:34.165Z,10.60
2018-05-16T07:16:28.929Z,10.60
2018-05-16T07:19:11.941Z,10.60
2018-05-16T07:22:00.478Z,10.70
2018-05-16T07:24:43.523Z,10.70
2018-05-16T07:27:34.284Z,10.70
2018-05-16T07:30:26.536Z,10.80
2018-05-16T07:33:07.460Z,10.70
2018-05-16T07:35:49.964Z,10.80
2018-05-16T07:38:37.406Z,10.80
2018-05-16T07:41:20.372Z,10.80
2018-05-16T07:44:00.842Z,10.80
2018-05-16T07:46:48.675Z,10.80
2018-05-16T07:49:34.054Z,10.80
2018-05-16T07:52:27.350Z,10.70
2018-05-16T07:55:08.368Z,10.70
2018-05-16T07:57:36.429Z,10.70
2018-05-16T08:00:18.019Z,10.60
2018-05-16T08:02:58.028Z,10.50
2018-05-16T08:05:40.176Z,10.50
2018-05-16T08:08:22.863Z,10.60
2018-05-16T08:11:04.174Z,10.50
2018-05-16T08:13:45.820Z,10.60
2018-05-16T08:16:28.274Z,10.60
2018-05-16T08:19:11.401Z,10.60
2018-05-16T08:21:53.099Z,10.70
2018-05-16T08:24:36.464Z,10.80
2018-05-16T08:27:18.528Z,10.80
2018-05-16T08:29:59.010Z,10.80
2018-05-16T08:32:44.705Z,10.80
2018-05-16T08:35:27.240Z,10.80
2018-05-16T08:44:23.282Z,10.70
2018-05-16T08:53:07.340Z,10.60
2018-05-16T08:56:06.912Z,10.60
2018-05-16T08:59:55.497Z,10.60
2018-05-16T09:02:46.065Z,10.60
2018-05-16T09:14:36.085Z,10.70
2018-05-16T09:17:22.826Z,11.00
2018-05-16T09:20:05.395Z,11.10
2018-05-16T09:22:47.775Z,11.20
2018-05-16T09:25:43.439Z,11.10
2018-05-16T09:28:24.617Z,11.20
2018-05-16T09:31:05.670Z,11.20
2018-05-16T09:40:05.523Z,11.30
2018-05-16T09:42:56.128Z,11.30
2018-05-16T09:48:41.403Z,11.30
2018-05-16T10:03:26.501Z,11.50
2018-05-16T10:15:15.181Z,11.70
2018-05-16T10:17:56.550Z,11.70
2018-05-16T10:32:45.399Z,11.70
2018-05-16T10:35:45.681Z,11.80
2018-05-16T10:38:34.942Z,11.80
2018-05-16T10:41:27.290Z,11.80
2018-05-16T10:50:37.738Z,12.00
2018-05-16T10:56:26.965Z,12.00
2018-05-16T11:02:05.085Z,12.10
2018-05-16T11:04:46.558Z,12.10
2018-05-16T11:07:29.872Z,12.00
2018-05-16T11:10:11.751Z,12.00
2018-05-16T11:12:54.757Z,12.00
2018-05-16T11:15:38.049Z,11.90
2018-05-16T11:18:18.585Z,12.10
2018-05-16T11:23:52.865Z,12.20
2018-05-16T11:26:34.100Z,12.20
2018-05-16T11:29:19.420Z,12.20
2018-05-16T11:32:00.638Z,12.30
2018-05-16T11:34:48.401Z,12.30
2018-05-16T11:37:35.724Z,12.30
2018-05-16T11:43:28.773Z,12.40
2018-05-16T11:51:29.098Z,12.50
2018-05-16T11:54:16.672Z,12.50
2018-05-16T11:56:59.268Z,12.50
2018-05-16T12:00:00.032Z,12.50
2018-05-16T12:02:43.169Z,12.50
2018-05-16T12:08:22.815Z,12.50
2018-05-16T12:13:44.058Z,12.40
2018-05-16T12:16:33.738Z,12.30
2018-05-16T12:22:07.280Z,12.20
2018-05-16T12:24:46.648Z,12.20
2018-05-16T12:27:25.805Z,12.30
2018-05-16T12:30:07.205Z,12.40
2018-05-16T12:38:24.688Z,12.90
2018-05-16T12:49:34.115Z,13.60
2018-05-16T12:52:07.635Z,13.80
2018-05-16T12:55:33.049Z,13.90
2018-05-16T13:00:55.833Z,14.10
2018-05-16T13:03:38.753Z,14.20
2018-05-16T13:06:11.876Z,14.30
2018-05-16T13:08:45.157Z,14.30
2018-05-16T13:11:20.694Z,14.30
2018-05-16T13:16:49.456Z,14.30
2018-05-16T13:27:56.032Z,14.30
2018-05-16T13:30:31.291Z,14.30
2018-05-16T13:35:55.023Z,14.30
2018-05-16T13:38:22.856Z,14.30
2018-05-16T13:41:00.189Z,14.30
2018-05-16T13:52:23.215Z,15.00
2018-05-16T13:57:43.434Z,14.90
2018-05-16T14:00:17.070Z,14.80
2018-05-16T14:02:46.811Z,14.80
2018-05-16T14:14:02.949Z,14.90
2018-05-16T14:22:46.404Z,15.20
2018-05-16T14:31:16.187Z,15.80
2018-05-16T14:43:04.161Z,16.10
2018-05-16T14:45:50.165Z,16.30
2018-05-16T14:57:40.849Z,16.00
2018-05-16T15:15:39.269Z,15.70
2018-05-16T15:18:22.083Z,15.70
2018-05-16T15:30:09.092Z,16.60
2018-05-16T15:35:56.432Z,16.70
2018-05-16T15:41:27.672Z,16.30
2018-05-16T15:44:20.483Z,16.00
2018-05-16T15:47:05.395Z,15.70
2018-05-16T15:58:01.632Z,15.00
2018-05-16T16:09:25.808Z,14.10
2018-05-16T16:12:12.878Z,13.90
2018-05-16T16:14:56.153Z,13.80
2018-05-16T16:17:37.410Z,13.30
2018-05-16T16:20:19.559Z,13.10
2018-05-16T16:23:02.631Z,13.00
2018-05-16T16:25:48.411Z,13.00
2018-05-16T16:31:30.597Z,12.90
2018-05-16T16:34:12.730Z,12.80
2018-05-16T16:36:56.050Z,13.00
2018-05-16T16:42:31.625Z,13.00
2018-05-16T16:45:12.916Z,13.00
2018-05-16T16:47:52.741Z,13.10
2018-05-16T16:50:37.638Z,13.10
2018-05-16T16:56:06.587Z,13.10
2018-05-16T16:58:46.077Z,13.10
2018-05-16T17:01:27.875Z,13.10
2018-05-16T17:04:11.256Z,13.10
2018-05-16T17:06:52.444Z,13.00
2018-05-16T17:09:43.966Z,13.10
2018-05-16T17:20:48.320Z,13.10
2018-05-16T17:23:35.297Z,13.10
2018-05-16T17:31:59.317Z,13.10
2018-05-16T17:43:15.227Z,12.90
2018-05-16T17:48:46.424Z,12.80
2018-05-16T17:51:27.188Z,12.70
2018-05-16T17:57:03.162Z,12.50
2018-05-16T18:06:12.675Z,12.40
2018-05-16T18:11:40.259Z,12.40
2018-05-16T18:17:23.400Z,12.40
2018-05-16T18:25:45.545Z,12.40
2018-05-16T18:28:24.792Z,12.40
2018-05-16T18:37:39.162Z,12.30
2018-05-16T18:42:52.185Z,12.30
2018-05-16T18:48:33.506Z,12.30
2018-05-16T18:54:12.745Z,12.30
2018-05-16T19:02:32.952Z,12.20
2018-05-16T19:25:47.636Z,11.90
2018-05-16T19:31:23.393Z,11.90
2018-05-16T19:36:55.056Z,11.80
2018-05-16T19:56:20.962Z,11.60
2018-05-16T19:59:02.085Z,11.60
2018-05-16T20:01:49.451Z,11.60
2018-05-16T20:07:20.319Z,11.60
2018-05-16T20:15:30.317Z,11.50
2018-05-16T20:18:15.031Z,11.50
2018-05-16T20:26:33.484Z,11.50
2018-05-16T20:37:38.245Z,11.40
2018-05-16T20:43:11.588Z,11.30
2018-05-16T20:48:36.541Z,11.30
2018-05-16T21:19:56.570Z,11.30
2018-05-16T21:28:47.743Z,11.30
2018-05-16T21:34:36.971Z,11.20
2018-05-16T21:40:32.987Z,11.20
2018-05-16T21:51:47.013Z,11.10
2018-05-16T21:54:29.064Z,11.00
2018-05-16T21:57:16.650Z,11.00
2018-05-16T22:00:07.341Z,11.00
2018-05-16T22:02:48.555Z,11.10
2018-05-16T22:05:49.822Z,11.00
2018-05-16T22:08:32.026Z,11.10
2018-05-16T22:11:15.753Z,11.10
2018-05-16T22:13:55.571Z,11.20
2018-05-16T22:16:37.839Z,11.10
2018-05-16T22:19:19.409Z,11.10
2018-05-16T22:22:00.975Z,11.10
2018-05-16T22:24:42.076Z,11.10
2018-05-16T22:27:30.413Z,11.10
2018-05-16T22:30:10.945Z,11.00
2018-05-16T22:35:57.618Z,11.00
2018-05-16T22:38:38.661Z,11.00
2018-05-16T22:41:28.817Z,11.00
2018-05-16T22:44:14.740Z,11.00
2018-05-16T22:46:56.050Z,11.00
2018-05-16T22:49:36.712Z,11.10
2018-05-16T22:52:18.228Z,11.10
2018-05-16T22:54:58.940Z,11.00
2018-05-16T22:57:40.651Z,11.10
2018-05-16T23:00:27.365Z,11.10
2018-05-16T23:03:08.257Z,11.10
2018-05-16T23:05:47.519Z,11.10
2018-05-16T23:08:27.872Z,11.10
2018-05-16T23:11:09.144Z,11.10
2018-05-16T23:13:50.133Z,11.10
2018-05-16T23:16:35.501Z,11.10
2018-05-16T23:19:16.960Z,11.10
2018-05-16T23:21:57.935Z,11.20
2018-05-16T23:24:49.024Z,11.20
2018-05-16T23:27:30.444Z,11.20
2018-05-16T23:30:12.175Z,11.20
2018-05-16T23:32:53.325Z,11.20
2018-05-16T23:35:37.398Z,11.20
2018-05-16T23:38:16.508Z,11.30
2018-05-16T23:40:57.205Z,11.30
2018-05-16T23:43:37.142Z,11.30
2018-05-16T23:46:18.064Z,11.30
2018-05-16T23:48:58.660Z,11.30
2018-05-16T23:51:39.356Z,11.30
2018-05-16T23:54:19.941Z,11.30
2018-05-16T23:57:02.964Z,11.40
2018-05-16T23:59:42.084Z,11.30
